sensor_id;sensor_type;location;lat;lon;timestamp;P1;durP1;ratioP1;P2;durP2;ratioP2
18947;SDS011;9607;51.600;7.558;2023-05-14T00:00:10;9.80;;;8.88;;
18947;SDS011;9607;51.600;7.558;2023-05-14T00:02:39;10.60;;;8.73;;
18947;SDS011;9607;51.600;7.558;2023-05-14T00:05:06;9.65;;;8.65;;
18947;SDS011;9607;51.600;7.558;2023-05-14T00:07:34;10.35;;;9.35;;
18947;SDS011;9607;51.600;7.558;2023-05-14T00:10:00;9.57;;;8.68;;
18947;SDS011;9607;51.600;7.558;2023-05-14T00:12:27;10.38;;;9.35;;
18947;SDS011;9607;51.600;7.558;2023-05-14T00:14:54;10.65;;;9.57;;
18947;SDS011;9607;51.600;7.558;2023-05-14T00:17:21;10.18;;;9.27;;
18947;SDS011;9607;51.600;7.558;2023-05-14T00:19:50;9.93;;;9.02;;
18947;SDS011;9607;51.600;7.558;2023-05-14T00:22:16;8.65;;;7.85;;
18947;SDS011;9607;51.600;7.558;2023-05-14T00:24:43;8.70;;;7.90;;
18947;SDS011;9607;51.600;7.558;2023-05-14T00:27:10;9.23;;;8.32;;
18947;SDS011;9607;51.600;7.558;2023-05-14T00:29:37;9.65;;;8.75;;
18947;SDS011;9607;51.600;7.558;2023-05-14T00:32:04;9.13;;;8.30;;
18947;SDS011;9607;51.600;7.558;2023-05-14T00:34:31;9.52;;;8.40;;
18947;SDS011;9607;51.600;7.558;2023-05-14T00:37:00;9.70;;;8.80;;
18947;SDS011;9607;51.600;7.558;2023-05-14T00:39:27;8.68;;;7.90;;
18947;SDS011;9607;51.600;7.558;2023-05-14T00:41:54;9.60;;;8.80;;
18947;SDS011;9607;51.600;7.558;2023-05-14T00:44:22;9.88;;;8.88;;
18947;SDS011;9607;51.600;7.558;2023-05-14T00:46:49;7.85;;;7.05;;
18947;SDS011;9607;51.600;7.558;2023-05-14T00:49:17;8.55;;;7.75;;
18947;SDS011;9607;51.600;7.558;2023-05-14T00:51:44;8.05;;;7.35;;
18947;SDS011;9607;51.600;7.558;2023-05-14T00:54:13;8.95;;;8.15;;
18947;SDS011;9607;51.600;7.558;2023-05-14T00:56:41;8.73;;;7.88;;
18947;SDS011;9607;51.600;7.558;2023-05-14T00:59:08;8.02;;;7.32;;
18947;SDS011;9607;51.600;7.558;2023-05-14T01:01:35;14.30;;;10.35;;
18947;SDS011;9607;51.600;7.558;2023-05-14T01:04:02;10.65;;;9.68;;
18947;SDS011;9607;51.600;7.558;2023-05-14T01:06:31;10.07;;;9.10;;
18947;SDS011;9607;51.600;7.558;2023-05-14T01:09:21;12.45;;;11.15;;
18947;SDS011;9607;51.600;7.558;2023-05-14T01:11:53;10.32;;;9.43;;
18947;SDS011;9607;51.600;7.558;2023-05-14T01:14:27;12.88;;;11.57;;
18947;SDS011;9607;51.600;7.558;2023-05-14T01:16:59;11.88;;;10.70;;
18947;SDS011;9607;51.600;7.558;2023-05-14T01:19:32;11.55;;;10.38;;
18947;SDS011;9607;51.600;7.558;2023-05-14T01:22:03;13.60;;;11.95;;
18947;SDS011;9607;51.600;7.558;2023-05-14T01:24:30;11.18;;;10.07;;
18947;SDS011;9607;51.600;7.558;2023-05-14T01:27:00;15.50;;;11.90;;
18947;SDS011;9607;51.600;7.558;2023-05-14T01:29:32;11.45;;;10.35;;
18947;SDS011;9607;51.600;7.558;2023-05-14T01:32:01;10.18;;;9.18;;
18947;SDS011;9607;51.600;7.558;2023-05-14T01:34:31;11.00;;;9.98;;
18947;SDS011;9607;51.600;7.558;2023-05-14T01:37:00;10.77;;;9.68;;
18947;SDS011;9607;51.600;7.558;2023-05-14T01:39:29;14.30;;;12.90;;
18947;SDS011;9607;51.600;7.558;2023-05-14T01:41:57;13.82;;;12.48;;
18947;SDS011;9607;51.600;7.558;2023-05-14T01:44:25;12.18;;;11.05;;
18947;SDS011;9607;51.600;7.558;2023-05-14T01:46:52;12.00;;;10.80;;
18947;SDS011;9607;51.600;7.558;2023-05-14T01:49:19;11.57;;;10.40;;
18947;SDS011;9607;51.600;7.558;2023-05-14T01:51:47;10.63;;;9.63;;
18947;SDS011;9607;51.600;7.558;2023-05-14T01:54:14;10.70;;;9.70;;
18947;SDS011;9607;51.600;7.558;2023-05-14T01:56:42;10.02;;;9.13;;
18947;SDS011;9607;51.600;7.558;2023-05-14T01:59:09;9.65;;;8.75;;
18947;SDS011;9607;51.600;7.558;2023-05-14T02:01:35;9.45;;;8.57;;
18947;SDS011;9607;51.600;7.558;2023-05-14T02:04:02;10.32;;;9.32;;
18947;SDS011;9607;51.600;7.558;2023-05-14T02:06:29;12.73;;;11.45;;
18947;SDS011;9607;51.600;7.558;2023-05-14T02:08:56;13.13;;;11.85;;
18947;SDS011;9607;51.600;7.558;2023-05-14T02:11:23;12.90;;;11.60;;
18947;SDS011;9607;51.600;7.558;2023-05-14T02:13:51;12.65;;;11.43;;
18947;SDS011;9607;51.600;7.558;2023-05-14T02:16:18;14.20;;;12.75;;
18947;SDS011;9607;51.600;7.558;2023-05-14T02:18:45;14.20;;;12.80;;
18947;SDS011;9607;51.600;7.558;2023-05-14T02:21:12;12.13;;;10.93;;
18947;SDS011;9607;51.600;7.558;2023-05-14T02:23:38;14.90;;;13.40;;
18947;SDS011;9607;51.600;7.558;2023-05-14T02:26:05;13.13;;;11.93;;
18947;SDS011;9607;51.600;7.558;2023-05-14T02:28:33;12.60;;;11.40;;
18947;SDS011;9607;51.600;7.558;2023-05-14T02:31:01;15.65;;;14.13;;
18947;SDS011;9607;51.600;7.558;2023-05-14T02:33:28;15.55;;;14.10;;
18947;SDS011;9607;51.600;7.558;2023-05-14T02:35:55;14.90;;;13.40;;
18947;SDS011;9607;51.600;7.558;2023-05-14T02:38:21;16.30;;;14.70;;
18947;SDS011;9607;51.600;7.558;2023-05-14T02:40:48;16.60;;;14.90;;
18947;SDS011;9607;51.600;7.558;2023-05-14T02:43:15;15.43;;;13.82;;
18947;SDS011;9607;51.600;7.558;2023-05-14T02:45:42;15.45;;;13.95;;
18947;SDS011;9607;51.600;7.558;2023-05-14T02:48:10;16.13;;;14.30;;
18947;SDS011;9607;51.600;7.558;2023-05-14T02:50:37;20.02;;;17.90;;
18947;SDS011;9607;51.600;7.558;2023-05-14T02:53:03;15.98;;;14.45;;
18947;SDS011;9607;51.600;7.558;2023-05-14T02:55:30;16.90;;;15.15;;
18947;SDS011;9607;51.600;7.558;2023-05-14T02:57:57;15.18;;;13.77;;
18947;SDS011;9607;51.600;7.558;2023-05-14T03:00:24;14.85;;;13.35;;
18947;SDS011;9607;51.600;7.558;2023-05-14T03:02:50;13.65;;;12.35;;
18947;SDS011;9607;51.600;7.558;2023-05-14T03:05:18;12.68;;;11.48;;
18947;SDS011;9607;51.600;7.558;2023-05-14T03:07:45;14.30;;;12.90;;
18947;SDS011;9607;51.600;7.558;2023-05-14T03:10:13;17.95;;;16.15;;
18947;SDS011;9607;51.600;7.558;2023-05-14T03:12:40;14.07;;;12.73;;
18947;SDS011;9607;51.600;7.558;2023-05-14T03:15:07;13.98;;;12.55;;
18947;SDS011;9607;51.600;7.558;2023-05-14T03:17:34;13.15;;;11.85;;
18947;SDS011;9607;51.600;7.558;2023-05-14T03:20:01;18.20;;;16.30;;
18947;SDS011;9607;51.600;7.558;2023-05-14T03:22:29;13.52;;;12.23;;
18947;SDS011;9607;51.600;7.558;2023-05-14T03:24:56;11.90;;;10.80;;
18947;SDS011;9607;51.600;7.558;2023-05-14T03:27:23;11.63;;;10.52;;
18947;SDS011;9607;51.600;7.558;2023-05-14T03:29:50;11.10;;;10.10;;
18947;SDS011;9607;51.600;7.558;2023-05-14T03:32:16;11.38;;;10.25;;
18947;SDS011;9607;51.600;7.558;2023-05-14T03:34:43;12.50;;;11.27;;
18947;SDS011;9607;51.600;7.558;2023-05-14T03:37:10;17.20;;;15.32;;
18947;SDS011;9607;51.600;7.558;2023-05-14T03:39:38;15.73;;;14.18;;
18947;SDS011;9607;51.600;7.558;2023-05-14T03:42:05;14.70;;;13.30;;
18947;SDS011;9607;51.600;7.558;2023-05-14T03:44:32;14.07;;;12.68;;
18947;SDS011;9607;51.600;7.558;2023-05-14T03:46:59;13.38;;;12.00;;
18947;SDS011;9607;51.600;7.558;2023-05-14T03:49:25;12.23;;;11.02;;
18947;SDS011;9607;51.600;7.558;2023-05-14T03:51:52;15.52;;;14.02;;
18947;SDS011;9607;51.600;7.558;2023-05-14T03:54:19;14.38;;;12.93;;
18947;SDS011;9607;51.600;7.558;2023-05-14T03:56:47;14.95;;;13.10;;
18947;SDS011;9607;51.600;7.558;2023-05-14T03:59:14;17.50;;;15.70;;
18947;SDS011;9607;51.600;7.558;2023-05-14T04:01:40;14.52;;;13.13;;
18947;SDS011;9607;51.600;7.558;2023-05-14T04:04:08;13.75;;;12.35;;
18947;SDS011;9607;51.600;7.558;2023-05-14T04:06:35;14.35;;;12.90;;
18947;SDS011;9607;51.600;7.558;2023-05-14T04:09:02;13.98;;;12.57;;
18947;SDS011;9607;51.600;7.558;2023-05-14T04:11:29;13.38;;;12.07;;
18947;SDS011;9607;51.600;7.558;2023-05-14T04:13:57;12.48;;;11.25;;
18947;SDS011;9607;51.600;7.558;2023-05-14T04:16:23;11.70;;;10.60;;
18947;SDS011;9607;51.600;7.558;2023-05-14T04:18:50;11.82;;;10.68;;
18947;SDS011;9607;51.600;7.558;2023-05-14T04:21:17;11.00;;;10.00;;
18947;SDS011;9607;51.600;7.558;2023-05-14T04:23:44;11.55;;;10.45;;
18947;SDS011;9607;51.600;7.558;2023-05-14T04:26:10;15.35;;;13.75;;
18947;SDS011;9607;51.600;7.558;2023-05-14T04:28:37;13.95;;;12.65;;
18947;SDS011;9607;51.600;7.558;2023-05-14T04:31:05;12.95;;;11.68;;
18947;SDS011;9607;51.600;7.558;2023-05-14T04:33:32;12.10;;;10.90;;
18947;SDS011;9607;51.600;7.558;2023-05-14T04:35:59;13.50;;;12.20;;
18947;SDS011;9607;51.600;7.558;2023-05-14T04:38:26;12.02;;;10.93;;
18947;SDS011;9607;51.600;7.558;2023-05-14T04:40:52;12.57;;;11.38;;
18947;SDS011;9607;51.600;7.558;2023-05-14T04:43:19;11.85;;;10.75;;
18947;SDS011;9607;51.600;7.558;2023-05-14T04:45:46;10.68;;;9.70;;
18947;SDS011;9607;51.600;7.558;2023-05-14T04:48:14;10.13;;;9.23;;
18947;SDS011;9607;51.600;7.558;2023-05-14T04:50:41;11.55;;;10.43;;
18947;SDS011;9607;51.600;7.558;2023-05-14T04:53:08;11.13;;;10.02;;
18947;SDS011;9607;51.600;7.558;2023-05-14T04:55:35;12.38;;;11.25;;
18947;SDS011;9607;51.600;7.558;2023-05-14T04:58:02;12.65;;;11.45;;
18947;SDS011;9607;51.600;7.558;2023-05-14T05:00:29;11.55;;;10.45;;
18947;SDS011;9607;51.600;7.558;2023-05-14T05:02:57;12.00;;;10.88;;
18947;SDS011;9607;51.600;7.558;2023-05-14T05:05:25;13.10;;;11.90;;
18947;SDS011;9607;51.600;7.558;2023-05-14T05:07:52;14.95;;;13.20;;
18947;SDS011;9607;51.600;7.558;2023-05-14T05:10:19;13.38;;;12.18;;
18947;SDS011;9607;51.600;7.558;2023-05-14T05:12:46;17.45;;;15.75;;
18947;SDS011;9607;51.600;7.558;2023-05-14T05:15:12;13.13;;;11.85;;
18947;SDS011;9607;51.600;7.558;2023-05-14T05:17:40;21.92;;;19.83;;
18947;SDS011;9607;51.600;7.558;2023-05-14T05:20:07;23.88;;;21.42;;
18947;SDS011;9607;51.600;7.558;2023-05-14T05:22:36;23.88;;;21.13;;
18947;SDS011;9607;51.600;7.558;2023-05-14T05:25:02;16.90;;;15.20;;
18947;SDS011;9607;51.600;7.558;2023-05-14T05:27:30;16.48;;;14.88;;
18947;SDS011;9607;51.600;7.558;2023-05-14T05:29:57;16.13;;;14.57;;
18947;SDS011;9607;51.600;7.558;2023-05-14T05:32:25;15.10;;;13.70;;
18947;SDS011;9607;51.600;7.558;2023-05-14T05:34:52;15.50;;;14.00;;
18947;SDS011;9607;51.600;7.558;2023-05-14T05:37:19;15.00;;;13.55;;
18947;SDS011;9607;51.600;7.558;2023-05-14T05:39:47;13.77;;;12.48;;
18947;SDS011;9607;51.600;7.558;2023-05-14T05:42:14;13.43;;;12.13;;
18947;SDS011;9607;51.600;7.558;2023-05-14T05:44:41;11.70;;;10.60;;
18947;SDS011;9607;51.600;7.558;2023-05-14T05:47:08;11.65;;;10.55;;
18947;SDS011;9607;51.600;7.558;2023-05-14T05:49:34;11.63;;;10.55;;
18947;SDS011;9607;51.600;7.558;2023-05-14T05:52:01;11.68;;;10.57;;
18947;SDS011;9607;51.600;7.558;2023-05-14T05:54:29;10.75;;;9.75;;
18947;SDS011;9607;51.600;7.558;2023-05-14T05:56:58;11.48;;;10.40;;
18947;SDS011;9607;51.600;7.558;2023-05-14T05:59:25;10.60;;;9.65;;
18947;SDS011;9607;51.600;7.558;2023-05-14T06:01:52;12.43;;;11.23;;
18947;SDS011;9607;51.600;7.558;2023-05-14T06:04:19;11.52;;;10.35;;
18947;SDS011;9607;51.600;7.558;2023-05-14T06:06:46;10.35;;;9.35;;
18947;SDS011;9607;51.600;7.558;2023-05-14T06:09:13;10.25;;;9.25;;
18947;SDS011;9607;51.600;7.558;2023-05-14T06:11:40;10.40;;;9.45;;
18947;SDS011;9607;51.600;7.558;2023-05-14T06:14:08;8.40;;;7.63;;
18947;SDS011;9607;51.600;7.558;2023-05-14T06:16:34;8.10;;;7.40;;
18947;SDS011;9607;51.600;7.558;2023-05-14T06:19:01;7.75;;;7.05;;
18947;SDS011;9607;51.600;7.558;2023-05-14T06:21:28;7.78;;;7.07;;
18947;SDS011;9607;51.600;7.558;2023-05-14T06:23:55;7.78;;;7.03;;
18947;SDS011;9607;51.600;7.558;2023-05-14T06:26:21;7.55;;;6.85;;
18947;SDS011;9607;51.600;7.558;2023-05-14T06:28:48;6.05;;;5.55;;
18947;SDS011;9607;51.600;7.558;2023-05-14T06:31:16;6.65;;;6.00;;
18947;SDS011;9607;51.600;7.558;2023-05-14T06:33:43;6.38;;;5.88;;
18947;SDS011;9607;51.600;7.558;2023-05-14T06:36:12;5.75;;;5.35;;
18947;SDS011;9607;51.600;7.558;2023-05-14T06:38:39;6.22;;;5.72;;
18947;SDS011;9607;51.600;7.558;2023-05-14T06:41:06;5.63;;;5.13;;
18947;SDS011;9607;51.600;7.558;2023-05-14T06:43:32;5.65;;;5.15;;
18947;SDS011;9607;51.600;7.558;2023-05-14T06:45:59;5.20;;;4.80;;
18947;SDS011;9607;51.600;7.558;2023-05-14T06:48:27;5.18;;;4.78;;
18947;SDS011;9607;51.600;7.558;2023-05-14T06:50:54;5.25;;;4.80;;
18947;SDS011;9607;51.600;7.558;2023-05-14T06:53:21;5.22;;;4.82;;
18947;SDS011;9607;51.600;7.558;2023-05-14T06:55:48;4.68;;;4.28;;
18947;SDS011;9607;51.600;7.558;2023-05-14T06:58:15;4.45;;;4.13;;
18947;SDS011;9607;51.600;7.558;2023-05-14T07:00:42;4.32;;;4.03;;
18947;SDS011;9607;51.600;7.558;2023-05-14T07:03:09;4.47;;;4.07;;
18947;SDS011;9607;51.600;7.558;2023-05-14T07:05:37;4.40;;;4.10;;
18947;SDS011;9607;51.600;7.558;2023-05-14T07:08:05;4.30;;;3.97;;
18947;SDS011;9607;51.600;7.558;2023-05-14T07:10:32;4.28;;;3.25;;
18947;SDS011;9607;51.600;7.558;2023-05-14T07:12:58;5.28;;;4.65;;
18947;SDS011;9607;51.600;7.558;2023-05-14T07:15:25;4.47;;;4.10;;
18947;SDS011;9607;51.600;7.558;2023-05-14T07:17:52;4.82;;;4.43;;
18947;SDS011;9607;51.600;7.558;2023-05-14T07:20:19;4.97;;;4.57;;
18947;SDS011;9607;51.600;7.558;2023-05-14T07:22:49;5.00;;;4.60;;
18947;SDS011;9607;51.600;7.558;2023-05-14T07:25:16;4.43;;;4.13;;
18947;SDS011;9607;51.600;7.558;2023-05-14T07:27:42;3.75;;;3.45;;
18947;SDS011;9607;51.600;7.558;2023-05-14T07:30:09;3.78;;;3.47;;
18947;SDS011;9607;51.600;7.558;2023-05-14T07:32:36;3.80;;;3.45;;
18947;SDS011;9607;51.600;7.558;2023-05-14T07:35:03;5.05;;;4.57;;
18947;SDS011;9607;51.600;7.558;2023-05-14T07:37:31;4.03;;;3.72;;
18947;SDS011;9607;51.600;7.558;2023-05-14T07:39:59;5.30;;;4.82;;
18947;SDS011;9607;51.600;7.558;2023-05-14T07:42:26;3.90;;;3.60;;
18947;SDS011;9607;51.600;7.558;2023-05-14T07:44:52;3.55;;;3.25;;
18947;SDS011;9607;51.600;7.558;2023-05-14T07:47:19;3.88;;;3.58;;
18947;SDS011;9607;51.600;7.558;2023-05-14T07:49:46;4.15;;;3.75;;
18947;SDS011;9607;51.600;7.558;2023-05-14T07:52:13;3.72;;;3.45;;
18947;SDS011;9607;51.600;7.558;2023-05-14T07:54:39;3.55;;;3.30;;
18947;SDS011;9607;51.600;7.558;2023-05-14T07:57:08;3.22;;;2.85;;
18947;SDS011;9607;51.600;7.558;2023-05-14T07:59:35;3.08;;;2.88;;
18947;SDS011;9607;51.600;7.558;2023-05-14T08:02:01;3.03;;;2.83;;
18947;SDS011;9607;51.600;7.558;2023-05-14T08:04:28;3.88;;;3.58;;
18947;SDS011;9607;51.600;7.558;2023-05-14T08:06:55;4.93;;;2.97;;
18947;SDS011;9607;51.600;7.558;2023-05-14T08:09:23;2.75;;;2.55;;
18947;SDS011;9607;51.600;7.558;2023-05-14T08:11:50;2.85;;;2.60;;
18947;SDS011;9607;51.600;7.558;2023-05-14T08:14:18;2.45;;;2.25;;
18947;SDS011;9607;51.600;7.558;2023-05-14T08:16:45;3.00;;;2.80;;
18947;SDS011;9607;51.600;7.558;2023-05-14T08:19:12;2.58;;;2.38;;
18947;SDS011;9607;51.600;7.558;2023-05-14T08:21:39;2.22;;;2.03;;
18947;SDS011;9607;51.600;7.558;2023-05-14T08:24:06;2.47;;;2.28;;
18947;SDS011;9607;51.600;7.558;2023-05-14T08:26:33;2.03;;;1.92;;
18947;SDS011;9607;51.600;7.558;2023-05-14T08:29:00;2.28;;;2.08;;
18947;SDS011;9607;51.600;7.558;2023-05-14T08:31:28;2.05;;;1.95;;
18947;SDS011;9607;51.600;7.558;2023-05-14T08:33:55;2.65;;;2.45;;
18947;SDS011;9607;51.600;7.558;2023-05-14T08:36:29;2.10;;;1.80;;
18947;SDS011;9607;51.600;7.558;2023-05-14T08:38:56;2.00;;;1.90;;
18947;SDS011;9607;51.600;7.558;2023-05-14T08:41:23;1.95;;;1.83;;
18947;SDS011;9607;51.600;7.558;2023-05-14T08:43:53;2.05;;;1.95;;
18947;SDS011;9607;51.600;7.558;2023-05-14T08:46:29;2.63;;;2.42;;
18947;SDS011;9607;51.600;7.558;2023-05-14T08:48:59;1.90;;;1.80;;
18947;SDS011;9607;51.600;7.558;2023-05-14T08:51:36;2.10;;;2.00;;
18947;SDS011;9607;51.600;7.558;2023-05-14T08:54:04;2.00;;;1.90;;
18947;SDS011;9607;51.600;7.558;2023-05-14T08:56:31;2.10;;;1.90;;
18947;SDS011;9607;51.600;7.558;2023-05-14T08:58:58;1.60;;;1.50;;
18947;SDS011;9607;51.600;7.558;2023-05-14T09:01:25;1.80;;;1.70;;
18947;SDS011;9607;51.600;7.558;2023-05-14T09:03:55;1.70;;;1.60;;
18947;SDS011;9607;51.600;7.558;2023-05-14T09:06:25;2.63;;;1.85;;
18947;SDS011;9607;51.600;7.558;2023-05-14T09:08:53;1.75;;;1.65;;
18947;SDS011;9607;51.600;7.558;2023-05-14T09:11:20;1.60;;;1.50;;
18947;SDS011;9607;51.600;7.558;2023-05-14T09:13:48;1.60;;;1.50;;
18947;SDS011;9607;51.600;7.558;2023-05-14T09:16:15;1.38;;;1.27;;
18947;SDS011;9607;51.600;7.558;2023-05-14T09:18:43;1.52;;;1.42;;
18947;SDS011;9607;51.600;7.558;2023-05-14T09:21:13;1.30;;;1.20;;
18947;SDS011;9607;51.600;7.558;2023-05-14T09:23:40;1.38;;;1.27;;
18947;SDS011;9607;51.600;7.558;2023-05-14T09:26:08;1.00;;;1.00;;
18947;SDS011;9607;51.600;7.558;2023-05-14T09:28:35;1.35;;;1.25;;
18947;SDS011;9607;51.600;7.558;2023-05-14T09:31:05;1.30;;;1.20;;
18947;SDS011;9607;51.600;7.558;2023-05-14T09:33:32;1.27;;;1.17;;
18947;SDS011;9607;51.600;7.558;2023-05-14T09:35:59;1.30;;;1.20;;
18947;SDS011;9607;51.600;7.558;2023-05-14T09:38:30;1.55;;;1.10;;
18947;SDS011;9607;51.600;7.558;2023-05-14T09:40:58;1.35;;;1.25;;
18947;SDS011;9607;51.600;7.558;2023-05-14T09:43:25;1.00;;;1.00;;
18947;SDS011;9607;51.600;7.558;2023-05-14T09:45:52;1.50;;;1.40;;
18947;SDS011;9607;51.600;7.558;2023-05-14T09:48:19;2.85;;;1.40;;
18947;SDS011;9607;51.600;7.558;2023-05-14T09:50:46;2.78;;;1.50;;
18947;SDS011;9607;51.600;7.558;2023-05-14T09:53:13;1.80;;;1.40;;
18947;SDS011;9607;51.600;7.558;2023-05-14T09:55:43;1.52;;;1.42;;
18947;SDS011;9607;51.600;7.558;2023-05-14T09:58:10;1.20;;;1.20;;
18947;SDS011;9607;51.600;7.558;2023-05-14T10:00:38;1.25;;;1.15;;
18947;SDS011;9607;51.600;7.558;2023-05-14T10:03:06;1.38;;;1.27;;
18947;SDS011;9607;51.600;7.558;2023-05-14T10:05:33;1.10;;;1.10;;
18947;SDS011;9607;51.600;7.558;2023-05-14T10:08:02;1.60;;;1.50;;
18947;SDS011;9607;51.600;7.558;2023-05-14T10:10:33;1.60;;;1.50;;
18947;SDS011;9607;51.600;7.558;2023-05-14T10:13:05;1.50;;;1.40;;
18947;SDS011;9607;51.600;7.558;2023-05-14T10:15:36;1.67;;;1.58;;
18947;SDS011;9607;51.600;7.558;2023-05-14T10:18:06;1.48;;;1.38;;
18947;SDS011;9607;51.600;7.558;2023-05-14T10:20:36;1.33;;;1.33;;
18947;SDS011;9607;51.600;7.558;2023-05-14T10:23:05;1.27;;;1.17;;
18947;SDS011;9607;51.600;7.558;2023-05-14T10:25:32;1.52;;;1.42;;
18947;SDS011;9607;51.600;7.558;2023-05-14T10:27:59;1.48;;;1.38;;
18947;SDS011;9607;51.600;7.558;2023-05-14T10:30:28;1.50;;;1.40;;
18947;SDS011;9607;51.600;7.558;2023-05-14T10:33:06;1.17;;;1.17;;
18947;SDS011;9607;51.600;7.558;2023-05-14T10:35:49;1.30;;;1.20;;
18947;SDS011;9607;51.600;7.558;2023-05-14T10:38:21;1.75;;;1.40;;
18947;SDS011;9607;51.600;7.558;2023-05-14T10:40:53;1.98;;;1.80;;
18947;SDS011;9607;51.600;7.558;2023-05-14T10:43:21;1.48;;;1.38;;
18947;SDS011;9607;51.600;7.558;2023-05-14T10:45:53;1.60;;;1.50;;
18947;SDS011;9607;51.600;7.558;2023-05-14T10:48:20;1.45;;;1.35;;
18947;SDS011;9607;51.600;7.558;2023-05-14T10:50:48;1.60;;;1.50;;
18947;SDS011;9607;51.600;7.558;2023-05-14T10:53:16;1.85;;;1.15;;
18947;SDS011;9607;51.600;7.558;2023-05-14T10:55:43;1.02;;;1.02;;
18947;SDS011;9607;51.600;7.558;2023-05-14T10:58:11;1.38;;;1.27;;
18947;SDS011;9607;51.600;7.558;2023-05-14T11:00:39;1.08;;;1.08;;
18947;SDS011;9607;51.600;7.558;2023-05-14T11:03:07;1.35;;;1.25;;
18947;SDS011;9607;51.600;7.558;2023-05-14T11:05:37;1.55;;;1.42;;
18947;SDS011;9607;51.600;7.558;2023-05-14T11:08:07;1.15;;;1.10;;
18947;SDS011;9607;51.600;7.558;2023-05-14T11:10:34;1.67;;;1.08;;
18947;SDS011;9607;51.600;7.558;2023-05-14T11:13:01;1.50;;;1.05;;
18947;SDS011;9607;51.600;7.558;2023-05-14T11:15:28;1.10;;;1.00;;
18947;SDS011;9607;51.600;7.558;2023-05-14T11:17:54;1.08;;;1.00;;
18947;SDS011;9607;51.600;7.558;2023-05-14T11:20:23;1.23;;;1.20;;
18947;SDS011;9607;51.600;7.558;2023-05-14T11:22:49;1.27;;;1.17;;
18947;SDS011;9607;51.600;7.558;2023-05-14T11:25:16;1.20;;;1.10;;
18947;SDS011;9607;51.600;7.558;2023-05-14T11:27:44;1.20;;;1.10;;
18947;SDS011;9607;51.600;7.558;2023-05-14T11:30:12;1.20;;;1.10;;
18947;SDS011;9607;51.600;7.558;2023-05-14T11:32:40;1.15;;;1.08;;
18947;SDS011;9607;51.600;7.558;2023-05-14T11:35:09;2.08;;;1.50;;
18947;SDS011;9607;51.600;7.558;2023-05-14T11:37:37;1.75;;;1.40;;
18947;SDS011;9607;51.600;7.558;2023-05-14T11:40:06;1.75;;;1.20;;
18947;SDS011;9607;51.600;7.558;2023-05-14T11:42:35;1.20;;;1.10;;
18947;SDS011;9607;51.600;7.558;2023-05-14T11:45:02;1.38;;;1.23;;
18947;SDS011;9607;51.600;7.558;2023-05-14T11:47:30;1.40;;;1.30;;
18947;SDS011;9607;51.600;7.558;2023-05-14T11:49:57;1.60;;;1.50;;
18947;SDS011;9607;51.600;7.558;2023-05-14T11:52:25;1.27;;;1.23;;
18947;SDS011;9607;51.600;7.558;2023-05-14T11:54:53;1.35;;;1.27;;
18947;SDS011;9607;51.600;7.558;2023-05-14T11:57:20;1.58;;;1.48;;
18947;SDS011;9607;51.600;7.558;2023-05-14T11:59:48;1.10;;;1.10;;
18947;SDS011;9607;51.600;7.558;2023-05-14T12:02:20;2.70;;;1.23;;
18947;SDS011;9607;51.600;7.558;2023-05-14T12:04:48;1.20;;;1.20;;
18947;SDS011;9607;51.600;7.558;2023-05-14T12:07:16;1.17;;;1.17;;
18947;SDS011;9607;51.600;7.558;2023-05-14T12:09:44;1.33;;;1.23;;
18947;SDS011;9607;51.600;7.558;2023-05-14T12:12:15;1.10;;;1.00;;
18947;SDS011;9607;51.600;7.558;2023-05-14T12:14:43;1.02;;;0.80;;
18947;SDS011;9607;51.600;7.558;2023-05-14T12:17:11;1.10;;;1.10;;
18947;SDS011;9607;51.600;7.558;2023-05-14T12:19:39;1.17;;;1.17;;
18947;SDS011;9607;51.600;7.558;2023-05-14T12:22:07;1.00;;;1.00;;
18947;SDS011;9607;51.600;7.558;2023-05-14T12:24:34;2.40;;;1.38;;
18947;SDS011;9607;51.600;7.558;2023-05-14T12:27:01;1.55;;;1.30;;
18947;SDS011;9607;51.600;7.558;2023-05-14T12:29:33;1.10;;;1.00;;
18947;SDS011;9607;51.600;7.558;2023-05-14T12:32:01;1.05;;;1.05;;
18947;SDS011;9607;51.600;7.558;2023-05-14T12:34:32;1.35;;;1.02;;
18947;SDS011;9607;51.600;7.558;2023-05-14T12:36:59;1.02;;;1.02;;
18947;SDS011;9607;51.600;7.558;2023-05-14T12:39:26;1.30;;;1.20;;
18947;SDS011;9607;51.600;7.558;2023-05-14T12:41:53;1.20;;;1.10;;
18947;SDS011;9607;51.600;7.558;2023-05-14T12:44:20;1.10;;;1.10;;
18947;SDS011;9607;51.600;7.558;2023-05-14T12:46:49;1.08;;;1.00;;
18947;SDS011;9607;51.600;7.558;2023-05-14T12:49:15;1.10;;;1.00;;
18947;SDS011;9607;51.600;7.558;2023-05-14T12:51:42;0.73;;;0.73;;
18947;SDS011;9607;51.600;7.558;2023-05-14T12:54:10;0.80;;;0.80;;
18947;SDS011;9607;51.600;7.558;2023-05-14T12:56:39;0.77;;;0.77;;
18947;SDS011;9607;51.600;7.558;2023-05-14T12:59:07;0.70;;;0.70;;
18947;SDS011;9607;51.600;7.558;2023-05-14T13:01:34;0.85;;;0.80;;
18947;SDS011;9607;51.600;7.558;2023-05-14T13:04:03;0.80;;;0.80;;
18947;SDS011;9607;51.600;7.558;2023-05-14T13:06:30;0.90;;;0.90;;
18947;SDS011;9607;51.600;7.558;2023-05-14T13:08:57;1.13;;;1.02;;
18947;SDS011;9607;51.600;7.558;2023-05-14T13:11:26;0.63;;;0.63;;
18947;SDS011;9607;51.600;7.558;2023-05-14T13:13:55;1.50;;;1.00;;
18947;SDS011;9607;51.600;7.558;2023-05-14T13:16:22;1.45;;;0.98;;
18947;SDS011;9607;51.600;7.558;2023-05-14T13:18:50;1.52;;;1.23;;
18947;SDS011;9607;51.600;7.558;2023-05-14T13:21:18;1.15;;;1.05;;
18947;SDS011;9607;51.600;7.558;2023-05-14T13:23:45;0.90;;;0.90;;
18947;SDS011;9607;51.600;7.558;2023-05-14T13:26:12;3.13;;;0.90;;
18947;SDS011;9607;51.600;7.558;2023-05-14T13:28:39;1.10;;;0.82;;
18947;SDS011;9607;51.600;7.558;2023-05-14T13:31:06;0.90;;;0.90;;
18947;SDS011;9607;51.600;7.558;2023-05-14T13:33:34;1.10;;;1.00;;
18947;SDS011;9607;51.600;7.558;2023-05-14T13:36:02;1.25;;;1.10;;
18947;SDS011;9607;51.600;7.558;2023-05-14T13:38:30;1.20;;;1.10;;
18947;SDS011;9607;51.600;7.558;2023-05-14T13:40:57;1.90;;;1.30;;
18947;SDS011;9607;51.600;7.558;2023-05-14T13:43:26;1.10;;;1.00;;
18947;SDS011;9607;51.600;7.558;2023-05-14T13:45:54;1.00;;;1.00;;
18947;SDS011;9607;51.600;7.558;2023-05-14T13:48:21;1.33;;;1.10;;
18947;SDS011;9607;51.600;7.558;2023-05-14T13:50:48;0.90;;;0.90;;
18947;SDS011;9607;51.600;7.558;2023-05-14T13:53:15;1.48;;;1.20;;
18947;SDS011;9607;51.600;7.558;2023-05-14T13:55:44;1.65;;;1.30;;
18947;SDS011;9607;51.600;7.558;2023-05-14T13:58:11;1.52;;;1.08;;
18947;SDS011;9607;51.600;7.558;2023-05-14T14:00:37;1.67;;;1.10;;
18947;SDS011;9607;51.600;7.558;2023-05-14T14:03:05;0.93;;;0.93;;
18947;SDS011;9607;51.600;7.558;2023-05-14T14:05:32;1.10;;;1.00;;
18947;SDS011;9607;51.600;7.558;2023-05-14T14:07:59;1.58;;;0.93;;
18947;SDS011;9607;51.600;7.558;2023-05-14T14:10:26;0.90;;;0.90;;
18947;SDS011;9607;51.600;7.558;2023-05-14T14:12:54;0.77;;;0.77;;
18947;SDS011;9607;51.600;7.558;2023-05-14T14:15:21;0.95;;;0.85;;
18947;SDS011;9607;51.600;7.558;2023-05-14T14:17:48;0.70;;;0.70;;
18947;SDS011;9607;51.600;7.558;2023-05-14T14:20:15;0.90;;;0.90;;
18947;SDS011;9607;51.600;7.558;2023-05-14T14:22:43;0.98;;;0.90;;
18947;SDS011;9607;51.600;7.558;2023-05-14T14:25:10;1.25;;;1.13;;
18947;SDS011;9607;51.600;7.558;2023-05-14T14:27:37;0.70;;;0.70;;
18947;SDS011;9607;51.600;7.558;2023-05-14T14:30:07;1.00;;;1.00;;
18947;SDS011;9607;51.600;7.558;2023-05-14T14:32:40;0.90;;;0.88;;
18947;SDS011;9607;51.600;7.558;2023-05-14T14:35:08;0.80;;;0.80;;
18947;SDS011;9607;51.600;7.558;2023-05-14T14:37:35;0.68;;;0.68;;
18947;SDS011;9607;51.600;7.558;2023-05-14T14:40:02;0.60;;;0.60;;
18947;SDS011;9607;51.600;7.558;2023-05-14T14:42:31;0.70;;;0.70;;
18947;SDS011;9607;51.600;7.558;2023-05-14T14:44:57;0.80;;;0.80;;
18947;SDS011;9607;51.600;7.558;2023-05-14T14:47:26;0.90;;;0.90;;
18947;SDS011;9607;51.600;7.558;2023-05-14T14:49:54;0.63;;;0.63;;
18947;SDS011;9607;51.600;7.558;2023-05-14T14:52:22;0.70;;;0.65;;
18947;SDS011;9607;51.600;7.558;2023-05-14T14:54:49;0.60;;;0.60;;